createdAt,value
2022-12-23T00:01:10.118Z,44.60
2022-12-23T00:06:16.122Z,35.95
2022-12-23T00:11:21.703Z,28.63
2022-12-23T00:16:26.984Z,40.60
2022-12-23T00:21:31.100Z,41.03
2022-12-23T00:26:36.896Z,37.95
2022-12-23T00:31:43.144Z,67.68
2022-12-23T00:36:47.149Z,59.00
2022-12-23T00:42:09.887Z,35.50
2022-12-23T00:47:35.266Z,28.00
2022-12-23T00:52:41.664Z,30.02
2022-12-23T00:57:47.512Z,27.35
2022-12-23T01:03:11.719Z,29.20
2022-12-23T01:08:16.098Z,33.60
2022-12-23T01:13:23.065Z,25.08
2022-12-23T01:18:27.127Z,29.15
2022-12-23T01:23:31.197Z,42.88
2022-12-23T01:28:38.258Z,37.28
2022-12-23T01:33:42.378Z,31.92
2022-12-23T01:38:46.337Z,30.13
2022-12-23T01:43:53.475Z,19.10
2022-12-23T01:48:58.551Z,21.23
2022-12-23T01:54:05.825Z,19.00
2022-12-23T01:59:35.994Z,26.92
2022-12-23T02:04:41.243Z,39.60
2022-12-23T02:09:46.725Z,45.10
2022-12-23T02:15:37.622Z,31.17
2022-12-23T02:21:16.770Z,25.73
2022-12-23T02:27:00.304Z,27.02
2022-12-23T02:32:14.485Z,30.77
2022-12-23T02:37:24.059Z,23.98
2022-12-23T02:42:34.956Z,30.95
2022-12-23T02:47:53.288Z,38.17
2022-12-23T02:53:01.175Z,64.43
2022-12-23T02:58:09.845Z,83.57
2022-12-23T03:03:17.539Z,120.75
2022-12-23T03:08:25.625Z,105.05
2022-12-23T03:13:42.418Z,42.67
2022-12-23T03:19:02.393Z,24.58
2022-12-23T03:24:16.941Z,45.53
2022-12-23T03:29:26.782Z,80.90
2022-12-23T03:34:37.328Z,68.10
2022-12-23T03:39:46.767Z,92.40
2022-12-23T03:45:27.806Z,77.28
2022-12-23T03:50:22.426Z,71.30
2022-12-23T03:55:32.159Z,83.03
2022-12-23T04:00:42.284Z,58.95
2022-12-23T04:05:55.429Z,54.42
2022-12-23T04:11:02.580Z,46.10
2022-12-23T04:16:07.836Z,74.80
2022-12-23T04:21:13.464Z,96.45
2022-12-23T04:26:19.044Z,85.72
2022-12-23T04:31:23.218Z,71.85
2022-12-23T04:36:28.606Z,70.03
2022-12-23T04:41:33.756Z,63.80
2022-12-23T04:46:38.617Z,58.20
2022-12-23T04:51:44.202Z,47.53
2022-12-23T04:56:48.892Z,51.22
2022-12-23T05:01:53.628Z,87.15
2022-12-23T05:06:59.799Z,92.18
2022-12-23T05:12:03.878Z,64.18
2022-12-23T05:17:11.412Z,63.80
2022-12-23T05:22:16.830Z,48.08
2022-12-23T05:27:20.829Z,93.55
2022-12-23T05:32:25.075Z,118.10
2022-12-23T05:37:33.344Z,109.72
2022-12-23T05:42:37.737Z,87.10
2022-12-23T05:47:41.955Z,43.45
2022-12-23T05:52:49.574Z,33.40
2022-12-23T05:57:54.280Z,30.10
2022-12-23T06:02:59.526Z,27.42
2022-12-23T06:08:06.013Z,38.97
2022-12-23T06:13:10.368Z,36.63
2022-12-23T06:18:14.540Z,50.33
2022-12-23T06:23:20.309Z,75.88
2022-12-23T06:28:24.623Z,77.45
2022-12-23T06:33:29.730Z,58.65
2022-12-23T06:38:36.004Z,48.42
2022-12-23T06:43:40.129Z,114.63
2022-12-23T06:48:46.037Z,142.23
2022-12-23T06:53:51.634Z,191.63
2022-12-23T06:58:56.064Z,141.20
2022-12-23T07:04:02.195Z,127.07
2022-12-23T07:09:08.798Z,153.45
2022-12-23T07:14:13.823Z,155.95
2022-12-23T07:19:18.965Z,84.43
2022-12-23T07:24:25.173Z,71.88
2022-12-23T07:29:30.354Z,112.10
2022-12-23T07:34:34.625Z,79.88
2022-12-23T07:39:41.259Z,74.35
2022-12-23T07:44:45.264Z,81.75
2022-12-23T07:49:49.352Z,127.80
2022-12-23T07:54:54.775Z,143.82
2022-12-23T08:00:01.732Z,164.82
2022-12-23T08:05:09.503Z,156.55
2022-12-23T08:10:15.128Z,214.95
2022-12-23T08:15:19.200Z,221.32
2022-12-23T08:20:23.243Z,206.95
2022-12-23T08:25:28.873Z,277.50
2022-12-23T08:30:33.159Z,256.77
2022-12-23T08:35:37.611Z,188.57
2022-12-23T08:40:43.173Z,112.03
2022-12-23T08:45:47.766Z,74.80
2022-12-23T08:50:51.801Z,58.45
2022-12-23T08:55:57.472Z,149.93
2022-12-23T09:01:08.823Z,130.75
2022-12-23T09:06:26.551Z,144.38
2022-12-23T09:11:41.275Z,355.15
2022-12-23T09:16:48.724Z,339.45
2022-12-23T09:21:57.497Z,208.55
2022-12-23T09:27:13.491Z,214.05
2022-12-23T09:32:24.416Z,186.60
2022-12-23T09:37:42.512Z,124.55
2022-12-23T09:42:59.645Z,118.13
2022-12-23T09:48:06.470Z,82.00
2022-12-23T09:53:17.173Z,33.88
2022-12-23T09:58:30.111Z,38.83
2022-12-23T10:03:43.894Z,50.60
2022-12-23T10:08:51.613Z,47.95
2022-12-23T10:14:00.755Z,43.15
2022-12-23T10:19:10.207Z,46.70
2022-12-23T10:29:27.056Z,59.38
2022-12-23T10:34:38.740Z,94.63
2022-12-23T10:39:51.952Z,126.18
2022-12-23T10:45:23.223Z,117.03
2022-12-23T10:50:48.013Z,87.90
2022-12-23T10:55:53.337Z,66.55
2022-12-23T11:01:00.824Z,40.58
2022-12-23T11:06:09.006Z,52.13
2022-12-23T11:11:14.200Z,88.18
2022-12-23T11:16:25.306Z,87.82
2022-12-23T11:21:32.990Z,103.82
2022-12-23T11:26:37.775Z,81.00
2022-12-23T11:31:45.147Z,71.88
2022-12-23T11:36:59.952Z,72.45
2022-12-23T11:42:15.403Z,89.78
2022-12-23T11:47:31.469Z,116.95
2022-12-23T11:52:35.624Z,91.65
2022-12-23T11:57:43.967Z,90.63
2022-12-23T12:02:53.618Z,80.65
2022-12-23T12:08:01.041Z,80.30
2022-12-23T12:13:07.866Z,98.75
2022-12-23T12:18:17.314Z,119.50
2022-12-23T12:28:36.017Z,72.45
2022-12-23T12:33:50.142Z,71.43
2022-12-23T12:38:59.647Z,162.25
2022-12-23T12:49:23.745Z,132.02
2022-12-23T12:54:34.036Z,74.03
2022-12-23T12:59:41.634Z,83.75
2022-12-23T13:05:22.662Z,86.70
2022-12-23T13:10:41.648Z,94.03
2022-12-23T13:15:53.617Z,141.97
2022-12-23T13:21:07.364Z,168.35
2022-12-23T13:26:20.837Z,83.97
2022-12-23T13:31:39.361Z,97.10
2022-12-23T13:36:53.152Z,55.20
2022-12-23T13:42:05.256Z,83.70
2022-12-23T13:47:19.622Z,83.10
2022-12-23T13:52:37.134Z,107.07
2022-12-23T13:57:51.771Z,90.60
2022-12-23T14:03:20.239Z,92.20
2022-12-23T14:08:36.151Z,94.03
2022-12-23T14:13:44.556Z,108.82
2022-12-23T14:19:26.061Z,150.38
2022-12-23T14:25:04.677Z,82.97
2022-12-23T14:30:15.640Z,156.52
2022-12-23T14:35:42.213Z,127.82
2022-12-23T14:41:13.186Z,114.20
2022-12-23T14:46:54.698Z,109.65
2022-12-23T14:52:44.316Z,152.18
2022-12-23T14:57:54.644Z,114.55
2022-12-23T15:03:01.976Z,161.63
2022-12-23T15:08:20.390Z,122.72
2022-12-23T15:13:30.976Z,69.93
2022-12-23T15:18:35.205Z,59.60
2022-12-23T15:23:50.890Z,47.75
2022-12-23T15:28:57.294Z,80.80
2022-12-23T15:34:11.778Z,110.57
2022-12-23T15:39:23.365Z,103.90
2022-12-23T15:44:37.082Z,113.88
2022-12-23T15:49:41.513Z,116.78
2022-12-23T15:54:54.213Z,82.82
2022-12-23T16:00:00.578Z,83.40
2022-12-23T16:05:07.285Z,75.57
2022-12-23T16:10:19.890Z,68.15
2022-12-23T16:15:30.590Z,68.72
2022-12-23T16:20:43.105Z,106.22
2022-12-23T16:25:51.101Z,62.00
2022-12-23T16:30:59.229Z,84.65
2022-12-23T16:36:17.963Z,137.13
2022-12-23T16:41:22.302Z,102.13
2022-12-23T16:46:29.721Z,98.57
2022-12-23T16:51:34.478Z,64.75
2022-12-23T16:56:41.145Z,133.60
2022-12-23T17:01:48.410Z,107.97
2022-12-23T17:06:54.146Z,131.82
2022-12-23T17:11:59.159Z,124.03
2022-12-23T17:17:15.899Z,103.97
2022-12-23T17:22:20.266Z,104.30
2022-12-23T17:27:25.455Z,86.28
2022-12-23T17:32:31.294Z,80.38
2022-12-23T17:37:38.583Z,64.20
2022-12-23T17:42:43.206Z,52.60
2022-12-23T17:47:50.220Z,91.30
2022-12-23T17:52:56.075Z,98.78
2022-12-23T17:58:00.384Z,99.13
2022-12-23T18:03:08.453Z,79.97
2022-12-23T18:08:14.823Z,79.18
2022-12-23T18:13:22.184Z,71.85
2022-12-23T18:18:35.613Z,81.65
2022-12-23T18:28:51.816Z,62.58
2022-12-23T18:33:57.668Z,77.97
2022-12-23T18:39:05.330Z,57.13
2022-12-23T18:44:20.271Z,65.85
2022-12-23T18:49:31.008Z,54.22
2022-12-23T18:54:35.328Z,92.00
2022-12-23T18:59:39.876Z,74.10
2022-12-23T19:04:47.784Z,62.90
2022-12-23T19:09:52.225Z,79.10
2022-12-23T19:14:58.833Z,58.22
2022-12-23T19:20:05.721Z,42.42
2022-12-23T19:25:12.820Z,53.50
2022-12-23T19:30:19.106Z,70.45
2022-12-23T19:35:26.277Z,58.20
2022-12-23T19:40:31.742Z,41.92
2022-12-23T19:45:37.118Z,48.83
2022-12-23T19:50:42.473Z,74.35
2022-12-23T19:55:47.910Z,86.53
2022-12-23T20:00:51.963Z,75.07
2022-12-23T20:05:58.843Z,41.47
2022-12-23T20:11:05.658Z,37.67
2022-12-23T20:16:10.437Z,40.75
2022-12-23T20:21:15.816Z,47.55
2022-12-23T20:26:21.239Z,48.08
2022-12-23T20:31:28.291Z,42.85
2022-12-23T20:36:35.933Z,58.90
2022-12-23T20:41:40.050Z,41.95
2022-12-23T20:46:45.371Z,48.25
2022-12-23T20:51:50.860Z,35.35
2022-12-23T20:56:58.279Z,44.85
2022-12-23T21:02:02.602Z,46.58
2022-12-23T21:07:08.064Z,145.93
2022-12-23T21:12:12.077Z,176.38
2022-12-23T21:17:16.088Z,207.77
2022-12-23T21:22:21.480Z,120.25
2022-12-23T21:27:25.904Z,91.97
2022-12-23T21:32:30.409Z,71.30
2022-12-23T21:37:35.907Z,107.95
2022-12-23T21:42:40.156Z,53.58
2022-12-23T21:47:45.454Z,46.47
2022-12-23T21:52:50.987Z,41.70
2022-12-23T21:57:55.154Z,36.72
2022-12-23T22:02:59.298Z,45.17
2022-12-23T22:08:05.552Z,49.92
2022-12-23T22:13:09.856Z,54.85
2022-12-23T22:18:14.019Z,79.70
2022-12-23T22:23:20.265Z,55.63
2022-12-23T22:28:25.209Z,57.13
2022-12-23T22:33:29.376Z,55.97
2022-12-23T22:38:35.985Z,65.88
2022-12-23T22:43:40.042Z,61.67
2022-12-23T22:48:44.379Z,62.80
2022-12-23T22:53:50.262Z,66.25
2022-12-23T22:58:55.404Z,55.75
2022-12-23T23:04:01.495Z,60.33
2022-12-23T23:09:08.005Z,47.92
2022-12-23T23:14:12.669Z,36.00
2022-12-23T23:19:20.463Z,54.53
2022-12-23T23:24:31.060Z,65.82
2022-12-23T23:29:38.701Z,49.95
2022-12-23T23:34:42.731Z,71.38
2022-12-23T23:39:50.514Z,84.22
2022-12-23T23:44:54.787Z,57.10
2022-12-23T23:49:59.419Z,85.07
2022-12-23T23:55:05.550Z,63.88
